EZY73QV EGCC-LFLL
Flight info
| Callsign | EZY73QV |
|---|---|
| Flight time | N/A |
| Altitude | 37000 |
| Route | LISTO P18 TELBA L151 MID UL612 OGULO DCT OKASI DCT OKEKO DCT OKEPI DCT MOU A3 FEDZI |
| Aircraft | A319/M-SDE2E3FGIJ1RWXYZ/LB1 |
Departure
| Time | 2026-05-06 20:23 |
|---|---|
| Airport | Manchester Airport (EGCC) |
Arrival
| Time | N/A |
|---|---|
| Airport | Lyon Saint-Exupéry Airport (LFLL) |
| Time | Latitude | Longitude | Altitude | Speed | Heading |
|---|---|---|---|---|---|
| 2026-05-06 19:53 | 53.35948 | -2.27133 | 255 ft | 0 kts | 89° |
| 2026-05-06 20:09 | 53.35948 | -2.27134 | 255 ft | 1 kts | 89° |
| 2026-05-06 20:09 | 53.35948 | -2.27175 | 255 ft | 4 kts | 89° |
| 2026-05-06 20:09 | 53.35948 | -2.27210 | 255 ft | 4 kts | 108° |
| 2026-05-06 20:09 | 53.35961 | -2.27238 | 255 ft | 4 kts | 171° |
| 2026-05-06 20:10 | 53.35958 | -2.27239 | 255 ft | 4 kts | 178° |
| 2026-05-06 20:10 | 53.35931 | -2.27235 | 255 ft | 3 kts | 172° |
| 2026-05-06 20:10 | 53.35927 | -2.27234 | 255 ft | 0 kts | 172° |
| 2026-05-06 20:14 | 53.35921 | -2.27233 | 255 ft | 5 kts | 172° |
| 2026-05-06 20:15 | 53.35848 | -2.27218 | 255 ft | 12 kts | 182° |
| 2026-05-06 20:15 | 53.35788 | -2.27323 | 255 ft | 15 kts | 230° |
| 2026-05-06 20:15 | 53.35709 | -2.27484 | 253 ft | 21 kts | 231° |
| 2026-05-06 20:15 | 53.35603 | -2.27684 | 243 ft | 23 kts | 223° |
| 2026-05-06 20:16 | 53.35487 | -2.27872 | 240 ft | 22 kts | 224° |
| 2026-05-06 20:16 | 53.35371 | -2.28059 | 236 ft | 24 kts | 223° |
| 2026-05-06 20:16 | 53.35249 | -2.28265 | 232 ft | 26 kts | 230° |
| 2026-05-06 20:16 | 53.35131 | -2.28510 | 227 ft | 28 kts | 231° |
| 2026-05-06 20:17 | 53.35009 | -2.28752 | 227 ft | 27 kts | 226° |
| 2026-05-06 20:17 | 53.34873 | -2.28986 | 221 ft | 30 kts | 225° |
| 2026-05-06 20:17 | 53.34767 | -2.29075 | 218 ft | 15 kts | 177° |
| 2026-05-06 20:17 | 53.34709 | -2.29043 | 221 ft | 0 kts | 148° |
| 2026-05-06 20:18 | 53.34698 | -2.29030 | 218 ft | 7 kts | 143° |
| 2026-05-06 20:18 | 53.34682 | -2.28927 | 223 ft | 10 kts | 62° |
| 2026-05-06 20:18 | 53.34711 | -2.28867 | 221 ft | 0 kts | 51° |
| 2026-05-06 20:22 | 53.34716 | -2.28857 | 221 ft | 12 kts | 51° |
| 2026-05-06 20:22 | 53.34937 | -2.28399 | 233 ft | 87 kts | 51° |
| 2026-05-06 20:23 | 53.35452 | -2.27329 | 249 ft | 146 kts | 51° |
| 2026-05-06 20:23 | 53.36107 | -2.25981 | 826 ft | 145 kts | 55° |
| 2026-05-06 20:23 | 53.36749 | -2.24673 | 1479 ft | 148 kts | 54° |
| 2026-05-06 20:23 | 53.37405 | -2.23188 | 1826 ft | 170 kts | 67° |
| 2026-05-06 20:24 | 53.37591 | -2.21235 | 2131 ft | 189 kts | 100° |
| 2026-05-06 20:24 | 53.36968 | -2.19197 | 2480 ft | 214 kts | 136° |
| 2026-05-06 20:24 | 53.35656 | -2.17689 | 2982 ft | 240 kts | 148° |
| 2026-05-06 20:24 | 53.34063 | -2.16798 | 3719 ft | 253 kts | 177° |
| 2026-05-06 20:25 | 53.32278 | -2.17011 | 4685 ft | 259 kts | 187° |
| 2026-05-06 20:25 | 53.30497 | -2.17316 | 5600 ft | 265 kts | 188° |
| 2026-05-06 20:25 | 53.28641 | -2.17631 | 6528 ft | 271 kts | 188° |
| 2026-05-06 20:25 | 53.26761 | -2.17942 | 7385 ft | 276 kts | 188° |
| 2026-05-06 20:26 | 53.24824 | -2.18252 | 8291 ft | 281 kts | 187° |
| 2026-05-06 20:26 | 53.22864 | -2.18561 | 9171 ft | 286 kts | 187° |
| 2026-05-06 20:26 | 53.20869 | -2.18875 | 10019 ft | 292 kts | 187° |
| 2026-05-06 20:26 | 53.18803 | -2.19203 | 10499 ft | 310 kts | 187° |
| 2026-05-06 20:27 | 53.16578 | -2.19560 | 10929 ft | 327 kts | 187° |
| 2026-05-06 20:27 | 53.14287 | -2.19919 | 11676 ft | 333 kts | 187° |
| 2026-05-06 20:27 | 53.11961 | -2.20284 | 12478 ft | 337 kts | 187° |
| 2026-05-06 20:27 | 53.09616 | -2.20654 | 13283 ft | 341 kts | 187° |
| 2026-05-06 20:28 | 53.07240 | -2.21028 | 14055 ft | 344 kts | 187° |
| 2026-05-06 20:28 | 53.04874 | -2.21399 | 14756 ft | 347 kts | 187° |